Triadelphia, West Virginia
Current Conditions -  °F | °C
As of 4:53 AM on Saturday 29 Nov 2014 (Local Time) from KHLG Reporting Station
Overcast Overcast  
Wind Chill: 22°   Ceiling: 9500
Heat Index: 29°   Visibility: 10mi
Dew Point: 20°   Wind: 7mph
Humidity: 69%   Direction: 150°SSE
Pressure: 30.12"   Gusts: NA
Location:  40.05°N, 80.63°W
Report Text: KHLG 290953Z AUTO 15006KT 10SM SCT075 BKN095 OVC120 M02/M07 A3012 RMK AO2 SLP215 T10171067
Loading
Personal Weather Stations






























Interactive Weather Map New forecast layout! Learn more

10-Day Weather Forecast

Advertisements
Track Severe Weather on mobile